Load, Kentucky
Current Conditions -  °F | °C
As of 9:15 AM on Thursday 29 Jan 2015 (Local Time) from KDWU Reporting Station
Overcast Overcast  
Wind Chill: 34°   Ceiling: 7000
Heat Index: 34°   Visibility: 3mi
Dew Point: 27°   Wind: 0mph
Humidity: 75%   Direction: NA
Pressure: 29.97"   Gusts: NA
Location:  38.5266°N, 82.9452°W
Report Text: KDWU 291415Z AUTO 00000KT 3SM BKN070 OVC080 01/M03 A2997 RMK AO1 VIS 1 3/4V4 P0003
Loading
Personal Weather Stations






























Interactive Weather Map New forecast layout! Learn more

10-Day Weather Forecast

Advertisements
Track Severe Weather on mobile